Data for 03/05/2015

Time Sea-Level Adjusted Pressure Absolute Pressure Temperature Relative Humidity Dew Point   
(mb) (inHg) (mb) (inHg) (C) (F) (%) (C) (F)
00:05 1021 30.15 850 25.1 -3.7 25.4 50 -12.6 9.3
00:10 1021 30.15 850 25.1 -4.3 24.2 51 -13.1 8.4
00:15 1021 30.15 850 25.1 -4.3 24.3 50 -13.1 8.4
00:20 1021 30.15 850 25.1 -4.1 24.6 49 -13.4 7.8
00:25 1021 30.15 850 25.1 -4.1 24.6 50 -13.1 8.4
00:30 1021 30.15 850 25.1 -4.3 24.3 50 -13.2 8.3
00:35 1021 30.15 850 25.1 -4.6 23.8 52 -13 8.6
00:40 1021 30.15 850 25.1 -4.5 23.8 52 -13.1 8.4
00:45 1021 30.15 850 25.1 -4.5 24 51 -13.1 8.5
00:50 1021 30.15 850 25.1 -4.4 24.1 51 -13.2 8.3
00:55 1021 30.15 850 25.1 -4.3 24.3 50 -13.3 8
01:00 1021 30.15 850 25.1 -4.2 24.5 50 -13.1 8.5
01:05 1021 30.15 850 25.1 -4.1 24.7 51 -12.8 9
01:10 1021 30.15 850 25.1 -4.1 24.7 49 -13.3 8.1
01:15 1021 30.15 850 25.1 -3.6 25.5 45 -13.9 6.9
01:20 1021 30.15 850 25.1 -3.5 25.7 47 -13.2 8.2
01:25 1021 30.15 850 25.1 -3.8 25.2 50 -12.7 9.1
01:30 1021 30.15 850 25.1 -4.1 24.7 49 -13.2 8.3
01:35 1021 30.15 850 25.1 -4.1 24.6 50 -13.2 8.3
01:40 1021 30.15 850 25.1 -3.9 25 49 -13.2 8.2
01:45 1021 30.15 850 25.1 -3.7 25.3 48 -13.3 8.1
01:50 1021 30.15 850 25.1 -3.6 25.5 49 -12.9 8.7
01:55 1021 30.15 850 25.1 -3.8 25.1 51 -12.6 9.2
02:00 1021 30.15 850 25.1 -3.9 25 49 -13.1 8.4
02:05 1021 30.15 850 25.1 -3.8 25.1 49 -13.2 8.3
02:10 1021 30.15 851 25.13 -4 24.9 50 -13.1 8.5
02:15 1021 30.15 851 25.13 -4.1 24.6 49 -13.4 7.9
02:20 1021 30.15 851 25.13 -3.7 25.3 45 -13.9 7.1
02:25 1021 30.15 851 25.13 -3.7 25.4 46 -13.7 7.4
02:30 1021 30.15 851 25.13 -3.7 25.3 45 -14 6.8
02:35 1021 30.15 851 25.13 -3.4 25.8 43 -14.2 6.4
02:40 1021 30.15 851 25.13 -3.5 25.8 46 -13.6 7.5
02:45 1022 30.18 851 25.13 -3.8 25.2 48 -13.3 8.1
02:50 1022 30.18 851 25.13 -4.1 24.7 50 -13.1 8.4
02:55 1022 30.18 851 25.13 -4.2 24.4 48 -13.5 7.6
03:00 1022 30.18 851 25.13 -3.9 25 45 -14.2 6.5
03:05 1022 30.18 851 25.13 -3.5 25.8 44 -14.1 6.6
03:10 1022 30.18 851 25.13 -3.5 25.8 44 -14.1 6.7
03:15 1022 30.18 851 25.13 -3.8 25.1 47 -13.6 7.5
03:20 1022 30.18 851 25.13 -4.1 24.5 50 -13.1 8.5
03:25 1022 30.18 851 25.13 -4.5 23.9 52 -12.9 8.7
03:30 1021 30.15 851 25.13 -4.5 23.9 52 -12.9 8.7
03:35 1021 30.15 851 25.13 -4.5 23.8 53 -12.9 8.9
03:40 1021 30.15 851 25.13 -4.7 23.5 52 -13.3 8.1
03:45 1021 30.15 851 25.13 -4.5 23.8 52 -13.1 8.4
03:50 1022 30.18 851 25.13 -4.7 23.6 56 -12.3 9.9
03:55 1022 30.18 851 25.13 -4.7 23.5 52 -13 8.5
04:00 1022 30.18 851 25.13 -4.8 23.4 50 -13.6 7.6
04:05 1022 30.18 851 25.13 -4.7 23.5 53 -12.8 8.9
04:10 1022 30.18 851 25.13 -4.6 23.8 53 -12.8 8.9
04:15 1022 30.18 851 25.13 -5.2 22.6 55 -12.9 8.8
04:20 1022 30.18 851 25.13 -5.3 22.4 54 -13.3 8
04:25 1022 30.18 851 25.13 -4.9 23.2 51 -13.5 7.7
04:30 1022 30.18 851 25.13 -5 22.9 52 -13.5 7.8
04:35 1022 30.18 851 25.13 -4.9 23.1 52 -13.4 7.8
04:40 1022 30.18 851 25.13 -4.9 23.1 54 -13 8.6
04:45 1022 30.18 851 25.13 -5.2 22.7 54 -13.2 8.2
04:50 1022 30.18 851 25.13 -5.2 22.6 54 -13 8.5
04:55 1022 30.18 851 25.13 -5.1 22.9 52 -13.4 7.9
05:00 1022 30.18 851 25.13 -5.1 22.9 53 -13.2 8.2
05:05 1022 30.18 851 25.13 -5 23 52 -13.4 7.8
05:10 1022 30.18 851 25.13 -4.8 23.3 52 -13.3 8.1
05:15 1022 30.18 851 25.13 -4.8 23.4 53 -13 8.5
05:20 1022 30.18 851 25.13 -4.5 23.9 51 -13.1 8.4
05:25 1022 30.18 851 25.13 -4.8 23.4 54 -12.6 9.3
05:30 1022 30.18 851 25.13 -4.9 23.2 52 -13.3 8.1
05:35 1022 30.18 851 25.13 -4.6 23.8 52 -13 8.6
05:40 1022 30.18 851 25.13 -4.4 24 51 -13.2 8.3
05:45 1022 30.18 851 25.13 -4.5 24 53 -12.6 9.3
05:50 1022 30.18 851 25.13 -4.5 24 50 -13.3 8.1
05:55 1022 30.18 851 25.13 -4.5 23.9 53 -12.7 9.2
06:00 1022 30.18 851 25.13 -4.7 23.5 55 -12.5 9.6
06:05 1022 30.18 851 25.13 -4.6 23.7 53 -12.8 8.9
06:10 1022 30.18 851 25.13 -4.8 23.3 55 -12.6 9.3
06:15 1022 30.18 851 25.13 -5 22.9 55 -12.7 9.2
06:20 1022 30.18 852 25.16 -4.9 23.2 55 -12.6 9.4
06:25 1022 30.18 852 25.16 -4.8 23.3 56 -12.2 10
06:30 1022 30.18 852 25.16 -4.8 23.3 57 -12.1 10.3
06:35 1022 30.18 852 25.16 -4.7 23.5 56 -12.2 10
06:40 1022 30.18 852 25.16 -4.7 23.6 55 -12.4 9.6
06:45 1022 30.18 852 25.16 -4.5 23.9 54 -12.4 9.6
06:50 1022 30.18 852 25.16 -4.4 24 54 -12.5 9.6
06:55 1022 30.18 852 25.16 -4.6 23.6 58 -11.7 11
07:00 1022 30.18 852 25.16 -4.9 23.1 55 -12.6 9.3
07:05 1023 30.21 852 25.16 -4.9 23.2 54 -12.8 8.9
07:10 1023 30.21 852 25.16 -4.7 23.6 55 -12.3 9.8
07:15 1023 30.21 852 25.16 -4.8 23.4 56 -12.3 9.8
07:20 1023 30.21 852 25.16 -5 22.9 55 -12.8 9
07:25 1023 30.21 852 25.16 -5.1 22.8 59 -11.9 10.5
07:30 1023 30.21 852 25.16 -5.2 22.6 57 -12.4 9.7
07:35 1023 30.21 852 25.16 -5.4 22.3 57 -12.7 9.2
07:40 1023 30.21 852 25.16 -5.3 22.5 56 -12.7 9.1
07:45 1023 30.21 852 25.16 -5.2 22.7 58 -12.1 10.1
07:50 1023 30.21 852 25.16 -5.4 22.3 58 -12.4 9.6
07:55 1023 30.21 852 25.16 -5.4 22.2 58 -12.6 9.4
08:00 1023 30.21 852 25.16 -5.5 22.2 57 -12.6 9.3
08:05 1023 30.21 852 25.16 -5.4 22.3 57 -12.7 9.1
08:10 1023 30.21 852 25.16 -5.5 22 57 -12.8 8.9
08:15 1023 30.21 852 25.16 -5.5 22.1 59 -12.2 10.1
08:20 1023 30.21 852 25.16 -5.5 22.1 59 -12.3 9.9
08:25 1023 30.21 852 25.16 -5.6 21.9 59 -12.3 9.8
08:30 1023 30.21 852 25.16 -5.4 22.3 59 -12.1 10.2
08:35 1023 30.21 852 25.16 -5.5 22 57 -12.7 9.2
08:40 1023 30.21 852 25.16 -5.1 22.8 56 -12.7 9.2
08:45 1023 30.21 853 25.19 -5.1 22.8 56 -12.5 9.6
08:50 1023 30.21 853 25.19 -5 23.1 55 -12.7 9.2
08:55 1023 30.21 853 25.19 -4.6 23.8 53 -12.7 9.1
09:00 1023 30.21 853 25.19 -4.4 24.1 53 -12.5 9.4
09:05 1023 30.21 853 25.19 -4 24.8 53 -12.2 10
09:10 1024 30.24 853 25.19 -3.9 24.9 53 -12.3 9.9
09:15 1024 30.24 853 25.19 -3.8 25.1 51 -12.5 9.5
09:20 1024 30.24 853 25.19 -3.2 26.2 51 -12 10.4
09:25 1024 30.24 853 25.19 -3.7 25.3 52 -12.2 10.1
09:30 1024 30.24 853 25.19 -3.8 25.2 53 -12.1 10.2
09:35 1024 30.24 853 25.19 -3.1 26.4 49 -12.3 9.8
09:40 1024 30.24 853 25.19 -2.3 27.9 47 -12.1 10.2
09:45 1024 30.24 853 25.19 -1.9 28.7 46 -12.1 10.3
09:50 1024 30.24 853 25.19 -1.4 29.6 45 -11.7 10.9
09:55 1024 30.24 853 25.19 -1.2 29.9 43 -12.3 9.8
10:00 1024 30.24 853 25.19 -0.9 30.3 39 -13.4 8
10:05 1024 30.24 853 25.19 -0.5 31 37 -13.6 7.6
10:10 1024 30.24 853 25.19 -0 32 35 -13.7 7.4
10:15 1024 30.24 853 25.19 0.1 32.2 36 -13.4 8
10:20 1024 30.24 853 25.19 0.5 32.9 35 -13.5 7.7
10:25 1024 30.24 854 25.22 1 33.9 32 -13.8 7.2
10:30 1024 30.24 854 25.22 1.6 34.9 33 -13.1 8.4
10:35 1024 30.24 854 25.22 1.7 35.1 32 -13.3 8
10:40 1024 30.24 854 25.22 1.5 34.7 32 -13.4 8
10:45 1024 30.24 854 25.22 1.3 34.3 33 -13.4 7.9
10:50 1024 30.24 854 25.22 1.6 34.9 32 -13.3 8.1
10:55 1024 30.24 854 25.22 1.6 34.8 33 -13.1 8.4
11:00 1024 30.24 854 25.22 2.6 36.7 30 -13.4 7.8
11:05 1024 30.24 853 25.19 3.5 38.2 28 -13.6 7.6
11:10 1024 30.24 853 25.19 3.3 37.9 28 -13.5 7.7
11:15 1024 30.24 853 25.19 3.1 37.6 29 -13.4 7.8
11:20 1024 30.24 853 25.19 3 37.4 29 -13.4 7.9
11:25 1024 30.24 853 25.19 3.9 39 27 -13.5 7.8
11:30 1024 30.24 853 25.19 3.7 38.7 27 -13.6 7.5
11:35 1024 30.24 853 25.19 4 39.2 27 -13.4 8
11:40 1024 30.24 853 25.19 4.4 40 28 -12.8 9
11:45 1024 30.24 853 25.19 4.7 40.4 27 -13 8.6
11:50 1024 30.24 853 25.19 4.8 40.7 26 -13 8.7
11:55 1024 30.24 853 25.19 5.2 41.3 25 -13.2 8.2
12:00 1024 30.24 853 25.19 5 40.9 26 -13 8.6
12:05 1024 30.24 853 25.19 5.5 41.9 25 -13.2 8.2
12:10 1024 30.24 853 25.19 5.8 42.5 25 -13 8.6
12:15 1024 30.24 853 25.19 6.2 43.1 23 -13.5 7.6
12:20 1024 30.24 853 25.19 6.4 43.6 24 -12.9 8.8
12:25 1024 30.24 853 25.19 5.9 42.7 24 -13 8.6
12:30 1024 30.24 853 25.19 5.8 42.4 24 -13.5 7.8
12:35 1024 30.24 853 25.19 6.4 43.6 23 -13.3 8.1
12:40 1024 30.24 853 25.19 6.5 43.7 23 -13.2 8.3
12:45 1024 30.24 853 25.19 6.8 44.3 22 -13.4 7.9
12:50 1024 30.24 853 25.19 6.8 44.3 22 -13.6 7.6
12:55 1024 30.24 853 25.19 6.8 44.3 22 -13.2 8.2
13:00 1024 30.24 853 25.19 6.7 44.1 22 -13.5 7.7
13:05 1024 30.24 853 25.19 6.7 44.1 22 -13.7 7.4
13:10 1024 30.24 853 25.19 6.4 43.5 23 -13.3 8
13:15 1024 30.24 853 25.19 6.3 43.3 22 -13.9 6.9
13:20 1024 30.24 853 25.19 6.3 43.4 22 -14.1 6.7
13:25 1024 30.24 853 25.19 6.5 43.7 22 -13.6 7.5
13:30 1024 30.24 853 25.19 6.5 43.7 22 -14 6.9
13:35 1023 30.21 853 25.19 6.5 43.7 21 -14.6 5.8
13:40 1023 30.21 853 25.19 6.7 44.1 21 -14.4 6.1
13:45 1023 30.21 853 25.19 6.9 44.4 19 -15.2 4.6
13:50 1023 30.21 853 25.19 6.7 44.1 20 -14.7 5.6
13:55 1023 30.21 852 25.16 7 44.5 19 -14.9 5.1
14:00 1023 30.21 852 25.16 7.1 44.8 19 -14.9 5.1
14:05 1023 30.21 852 25.16 7.4 45.3 19 -15.1 4.9
14:10 1023 30.21 852 25.16 7.3 45.2 18 -15.2 4.6
14:15 1023 30.21 852 25.16 7.2 45 18 -15.5 4.1
14:20 1023 30.21 852 25.16 7.1 44.7 19 -15.1 4.9
14:25 1023 30.21 852 25.16 7.2 44.9 18 -15.7 3.8
14:30 1023 30.21 852 25.16 7.3 45.1 19 -15.1 4.8
14:35 1023 30.21 852 25.16 7.6 45.6 19 -14.8 5.4
14:40 1023 30.21 852 25.16 7.8 46 18 -15.1 4.8
14:45 1023 30.21 852 25.16 7.5 45.6 19 -14.8 5.4
14:50 1023 30.21 852 25.16 7.8 46.1 19 -14.6 5.7
14:55 1023 30.21 852 25.16 7.4 45.4 19 -14.9 5.2
15:00 1023 30.21 852 25.16 7.3 45.1 18 -15.3 4.5
15:05 1023 30.21 852 25.16 8 46.4 18 -15.1 4.7
15:10 1023 30.21 852 25.16 8.5 47.2 17 -15 4.9
15:15 1023 30.21 852 25.16 8.2 46.8 18 -15.1 4.7
15:20 1023 30.21 852 25.16 8.5 47.3 19 -13.8 7.2
15:25 1023 30.21 852 25.16 8.9 48.1 17 -14.6 5.7
15:30 1023 30.21 852 25.16 9 48.2 17 -14.5 5.8
15:35 1023 30.21 852 25.16 9.3 48.7 16 -15.1 4.8
15:40 1023 30.21 852 25.16 9.4 48.8 17 -14.3 6.2
15:45 1023 30.21 852 25.16 9.5 49.1 18 -14 6.8
15:50 1023 30.21 852 25.16 9.5 49.2 17 -14.4 6
15:55 1023 30.21 852 25.16 9.4 48.8 17 -14.3 6.3
16:00 1023 30.21 852 25.16 9.4 48.9 17 -14.7 5.5
16:05 1023 30.21 852 25.16 9.5 49.2 17 -14.5 5.8
16:10 1023 30.21 852 25.16 9.4 49 17 -14.2 6.4
16:15 1023 30.21 852 25.16 9.4 48.8 17 -14.2 6.4
16:20 1023 30.21 852 25.16 9.6 49.3 17 -14.6 5.7
16:25 1023 30.21 852 25.16 9.2 48.6 18 -14.1 6.6
16:30 1023 30.21 852 25.16 9 48.2 18 -13.8 7.1
16:35 1023 30.21 852 25.16 8.9 48.1 18 -14 6.7
16:40 1023 30.21 852 25.16 8.7 47.7 19 -13.6 7.5
16:45 1023 30.21 852 25.16 8.8 47.8 19 -13.9 6.9
16:50 1023 30.21 852 25.16 8.8 47.9 19 -13.6 7.4
16:55 1023 30.21 852 25.16 9 48.1 20 -13.1 8.4
17:00 1023 30.21 852 25.16 9.4 48.8 19 -13.5 7.7
17:05 1023 30.21 852 25.16 9.2 48.6 19 -13.5 7.7
17:10 1023 30.21 852 25.16 9.1 48.4 19 -13.5 7.8
17:15 1023 30.21 852 25.16 9 48.2 19 -13.7 7.4
17:20 1023 30.21 852 25.16 8.9 48 19 -13.4 7.9
17:25 1023 30.21 852 25.16 8.6 47.5 20 -13.5 7.7
17:30 1023 30.21 852 25.16 8.4 47.2 20 -13.2 8.2
17:35 1023 30.21 852 25.16 8.3 47 21 -12.6 9.2
17:40 1023 30.21 852 25.16 8.3 47 20 -13.2 8.3
17:45 1023 30.21 852 25.16 8.2 46.8 21 -12.7 9.1
17:50 1023 30.21 852 25.16 8 46.5 21 -12.8 9
17:55 1023 30.21 852 25.16 7.9 46.1 22 -12.5 9.5
18:00 1023 30.21 852 25.16 7.9 46.2 22 -12.6 9.4
18:05 1023 30.21 852 25.16 7.9 46.2 22 -12.6 9.2
18:10 1023 30.21 852 25.16 7.8 46 23 -12.1 10.3
18:15 1023 30.21 852 25.16 7.7 45.8 24 -12 10.5
18:20 1023 30.21 852 25.16 7.6 45.6 23 -12.2 10.1
18:25 1023 30.21 852 25.16 7.5 45.5 24 -11.9 10.6
18:30 1023 30.21 852 25.16 7.3 45.2 24 -11.8 10.8
18:35 1023 30.21 852 25.16 7.3 45.1 25 -11.5 11.3
18:40 1023 30.21 852 25.16 7.1 44.8 25 -11.5 11.2
18:45 1023 30.21 852 25.16 6.9 44.4 27 -11 12.2
18:50 1023 30.21 852 25.16 6.6 43.9 28 -10.7 12.7
18:55 1023 30.21 852 25.16 6.4 43.6 28 -10.9 12.3
19:00 1023 30.21 852 25.16 6.3 43.3 29 -10.7 12.8
19:05 1023 30.21 852 25.16 6.1 43 31 -9.9 14.1
19:10 1023 30.21 852 25.16 5.9 42.7 29 -10.6 12.9
19:15 1023 30.21 852 25.16 5.8 42.5 31 -10.1 13.8
19:20 1023 30.21 852 25.16 5.7 42.3 30 -10.4 13.2
19:25 1023 30.21 852 25.16 5.6 42.1 31 -10.1 13.8
19:30 1023 30.21 852 25.16 5.5 41.9 32 -9.9 14.2
19:35 1023 30.21 852 25.16 5.3 41.5 34 -9.5 14.9
19:40 1023 30.21 852 25.16 4.9 40.8 32 -10.4 13.3
19:45 1023 30.21 853 25.19 4.8 40.6 33 -10.3 13.5
19:50 1023 30.21 852 25.16 4.6 40.3 35 -9.5 14.9
19:55 1023 30.21 853 25.19 4.5 40.1 35 -9.6 14.8
20:00 1023 30.21 853 25.19 4.2 39.6 37 -9.2 15.4
20:05 1024 30.24 853 25.19 3.9 39.1 38 -9.2 15.5
20:10 1024 30.24 853 25.19 3.5 38.3 40 -8.8 16.1
20:15 1024 30.24 853 25.19 2.7 36.9 41 -9.3 15.3
20:20 1024 30.24 853 25.19 2.6 36.6 41 -9.4 15
20:25 1024 30.24 853 25.19 2.8 37 38 -10.1 13.7
20:30 1024 30.24 853 25.19 2.9 37.2 37 -10.4 13.3
20:35 1024 30.24 853 25.19 2.8 37 39 -10 14
20:40 1024 30.24 853 25.19 3 37.3 38 -10.2 13.7
20:45 1024 30.24 853 25.19 3.2 37.7 40 -9.3 15.3
20:50 1024 30.24 853 25.19 3 37.3 39 -9.8 14.4
20:55 1024 30.24 853 25.19 3.1 37.7 32 -12.1 10.2
21:00 1024 30.24 853 25.19 4 39.1 30 -11.9 10.5
21:05 1024 30.24 853 25.19 4.3 39.7 32 -10.9 12.5
21:10 1024 30.24 853 25.19 4.4 39.9 30 -11.7 10.9
21:15 1024 30.24 853 25.19 4.4 39.9 31 -11.2 11.8
21:20 1024 30.24 853 25.19 4.2 39.5 32 -11.1 12
21:25 1024 30.24 853 25.19 4 39.2 33 -10.9 12.3
21:30 1024 30.24 853 25.19 4.1 39.4 31 -11.7 11
21:35 1024 30.24 853 25.19 4.3 39.8 31 -11.2 11.9
21:40 1024 30.24 853 25.19 4.2 39.6 32 -11 12.3
21:45 1024 30.24 853 25.19 4 39.2 31 -11.6 11.2
21:50 1024 30.24 853 25.19 4.2 39.6 31 -11.5 11.3
21:55 1024 30.24 853 25.19 4.3 39.7 32 -11.1 11.9
22:00 1024 30.24 853 25.19 4.1 39.4 31 -11.4 11.5
22:05 1024 30.24 853 25.19 4.2 39.6 32 -11.2 11.8
22:10 1024 30.24 853 25.19 4.1 39.4 32 -11.2 11.8
22:15 1024 30.24 853 25.19 4.1 39.4 32 -11.2 11.8
22:20 1024 30.24 853 25.19 4.1 39.5 34 -10.5 13
22:25 1024 30.24 853 25.19 3.6 38.5 35 -10.4 13.2
22:30 1024 30.24 853 25.19 3.4 38.2 35 -10.5 13.1
22:35 1024 30.24 853 25.19 3.5 38.4 35 -10.5 13.1
22:40 1024 30.24 853 25.19 3.6 38.5 35 -10.6 12.9
22:45 1024 30.24 853 25.19 3.7 38.7 35 -10.4 13.3
22:50 1024 30.24 853 25.19 3.5 38.3 35 -10.4 13.2
22:55 1024 30.24 853 25.19 3.1 37.6 37 -10.2 13.6
23:00 1024 30.24 853 25.19 3.1 37.6 37 -10.3 13.4
23:05 1024 30.24 853 25.19 3.3 37.9 37 -9.9 14.1
23:10 1024 30.24 853 25.19 3.2 37.8 39 -9.3 15.2
23:15 1024 30.24 854 25.22 3.2 37.7 36 -10.4 13.2
23:20 1024 30.24 853 25.19 3.2 37.8 37 -10.3 13.5
23:25 1024 30.24 853 25.19 3.2 37.7 38 -9.7 14.5
23:30 1024 30.24 853 25.19 3.1 37.6 34 -11.4 11.4
23:35 1024 30.24 853 25.19 3.6 38.5 32 -11.5 11.4
23:40 1024 30.24 854 25.22 3.7 38.7 37 -9.7 14.5
23:45 1024 30.24 854 25.22 3 37.3 38 -10.1 13.8
23:50 1024 30.24 854 25.22 2.7 36.8 38 -10.4 13.3
23:55 1024 30.24 854 25.22 2.7 36.8 37 -10.6 13
24:00 1024 30.24 854 25.22 2.6 36.8 40 -9.6 14.6